sensor_id;sensor_type;location;lat;lon;timestamp;temperature;humidity
54485;DHT22;45006;56.958;24.166;2023-06-22T00:00:14;26.50;75.50
54485;DHT22;45006;56.958;24.166;2023-06-22T00:02:41;26.50;75.30
54485;DHT22;45006;56.958;24.166;2023-06-22T00:05:08;26.40;75.10
54485;DHT22;45006;56.958;24.166;2023-06-22T00:07:35;26.40;75.10
54485;DHT22;45006;56.958;24.166;2023-06-22T00:10:02;26.50;75.10
54485;DHT22;45006;56.958;24.166;2023-06-22T00:12:29;26.40;75.00
54485;DHT22;45006;56.958;24.166;2023-06-22T00:14:56;26.40;74.90
54485;DHT22;45006;56.958;24.166;2023-06-22T00:17:22;26.40;74.80
54485;DHT22;45006;56.958;24.166;2023-06-22T00:19:50;26.40;74.80
54485;DHT22;45006;56.958;24.166;2023-06-22T00:22:20;26.40;74.90
54485;DHT22;45006;56.958;24.166;2023-06-22T00:24:56;26.40;74.90
54485;DHT22;45006;56.958;24.166;2023-06-22T00:27:23;26.40;74.80
54485;DHT22;45006;56.958;24.166;2023-06-22T00:29:50;26.40;74.80
54485;DHT22;45006;56.958;24.166;2023-06-22T00:32:17;26.40;74.80
54485;DHT22;45006;56.958;24.166;2023-06-22T00:34:44;26.50;75.00
54485;DHT22;45006;56.958;24.166;2023-06-22T00:37:11;26.40;74.80
54485;DHT22;45006;56.958;24.166;2023-06-22T00:39:38;26.40;74.80
54485;DHT22;45006;56.958;24.166;2023-06-22T00:42:05;26.40;74.70
54485;DHT22;45006;56.958;24.166;2023-06-22T00:44:32;26.40;74.70
54485;DHT22;45006;56.958;24.166;2023-06-22T00:46:59;26.40;74.60
54485;DHT22;45006;56.958;24.166;2023-06-22T00:49:27;26.40;74.60
54485;DHT22;45006;56.958;24.166;2023-06-22T00:51:55;26.40;74.70
54485;DHT22;45006;56.958;24.166;2023-06-22T00:54:23;26.40;74.70
54485;DHT22;45006;56.958;24.166;2023-06-22T00:56:53;26.40;74.70
54485;DHT22;45006;56.958;24.166;2023-06-22T00:59:22;26.40;74.70
54485;DHT22;45006;56.958;24.166;2023-06-22T01:01:50;26.40;74.80
54485;DHT22;45006;56.958;24.166;2023-06-22T01:04:17;26.40;74.90
54485;DHT22;45006;56.958;24.166;2023-06-22T01:06:54;26.40;74.90
54485;DHT22;45006;56.958;24.166;2023-06-22T01:09:32;26.40;74.80
54485;DHT22;45006;56.958;24.166;2023-06-22T01:12:04;26.40;74.60
54485;DHT22;45006;56.958;24.166;2023-06-22T01:15:02;26.40;74.50
54485;DHT22;45006;56.958;24.166;2023-06-22T01:17:32;26.40;74.50
54485;DHT22;45006;56.958;24.166;2023-06-22T01:20:00;26.40;74.60
54485;DHT22;45006;56.958;24.166;2023-06-22T01:22:36;26.40;74.60
54485;DHT22;45006;56.958;24.166;2023-06-22T01:25:26;26.40;74.70
54485;DHT22;45006;56.958;24.166;2023-06-22T01:28:19;26.30;74.60
54485;DHT22;45006;56.958;24.166;2023-06-22T01:30:49;26.40;74.70
54485;DHT22;45006;56.958;24.166;2023-06-22T01:33:34;26.40;74.70
54485;DHT22;45006;56.958;24.166;2023-06-22T01:36:02;26.40;74.70
54485;DHT22;45006;56.958;24.166;2023-06-22T01:38:31;26.40;74.80
54485;DHT22;45006;56.958;24.166;2023-06-22T01:41:00;26.40;74.90
54485;DHT22;45006;56.958;24.166;2023-06-22T01:43:28;26.30;74.80
54485;DHT22;45006;56.958;24.166;2023-06-22T01:45:56;26.40;74.90
54485;DHT22;45006;56.958;24.166;2023-06-22T01:48:24;26.30;74.80
54485;DHT22;45006;56.958;24.166;2023-06-22T01:50:53;26.30;74.80
54485;DHT22;45006;56.958;24.166;2023-06-22T01:53:21;26.40;74.80
54485;DHT22;45006;56.958;24.166;2023-06-22T01:55:49;26.30;74.70
54485;DHT22;45006;56.958;24.166;2023-06-22T01:58:17;26.30;74.70
54485;DHT22;45006;56.958;24.166;2023-06-22T02:00:54;26.30;74.70
54485;DHT22;45006;56.958;24.166;2023-06-22T02:03:26;26.30;74.70
54485;DHT22;45006;56.958;24.166;2023-06-22T02:05:58;26.30;74.80
54485;DHT22;45006;56.958;24.166;2023-06-22T02:08:38;26.30;74.70
54485;DHT22;45006;56.958;24.166;2023-06-22T02:11:08;26.40;74.70
54485;DHT22;45006;56.958;24.166;2023-06-22T02:13:37;26.30;74.70
54485;DHT22;45006;56.958;24.166;2023-06-22T02:16:04;26.30;74.60
54485;DHT22;45006;56.958;24.166;2023-06-22T02:18:31;26.30;74.50
54485;DHT22;45006;56.958;24.166;2023-06-22T02:20:59;26.30;74.50
54485;DHT22;45006;56.958;24.166;2023-06-22T02:23:26;26.30;74.50
54485;DHT22;45006;56.958;24.166;2023-06-22T02:25:53;26.30;74.50
54485;DHT22;45006;56.958;24.166;2023-06-22T02:28:22;26.30;74.50
54485;DHT22;45006;56.958;24.166;2023-06-22T02:30:49;26.30;74.50
54485;DHT22;45006;56.958;24.166;2023-06-22T02:33:16;26.30;74.50
54485;DHT22;45006;56.958;24.166;2023-06-22T02:35:43;26.30;74.50
54485;DHT22;45006;56.958;24.166;2023-06-22T02:38:12;26.30;74.60
54485;DHT22;45006;56.958;24.166;2023-06-22T02:40:39;26.30;74.70
54485;DHT22;45006;56.958;24.166;2023-06-22T02:43:06;26.30;74.70
54485;DHT22;45006;56.958;24.166;2023-06-22T02:45:37;26.30;74.60
54485;DHT22;45006;56.958;24.166;2023-06-22T02:48:05;26.30;74.60
54485;DHT22;45006;56.958;24.166;2023-06-22T02:50:33;26.30;74.60
54485;DHT22;45006;56.958;24.166;2023-06-22T02:53:01;26.30;74.60
54485;DHT22;45006;56.958;24.166;2023-06-22T02:55:28;26.30;74.70
54485;DHT22;45006;56.958;24.166;2023-06-22T02:57:55;26.30;74.80
54485;DHT22;45006;56.958;24.166;2023-06-22T03:00:24;26.30;74.90
54485;DHT22;45006;56.958;24.166;2023-06-22T03:02:53;26.30;74.90
54485;DHT22;45006;56.958;24.166;2023-06-22T03:05:23;26.30;74.90
54485;DHT22;45006;56.958;24.166;2023-06-22T03:07:50;26.30;74.80
54485;DHT22;45006;56.958;24.166;2023-06-22T03:10:17;26.30;74.80
54485;DHT22;45006;56.958;24.166;2023-06-22T03:12:45;26.30;74.70
54485;DHT22;45006;56.958;24.166;2023-06-22T03:15:12;26.30;74.70
54485;DHT22;45006;56.958;24.166;2023-06-22T03:17:40;26.30;74.50
54485;DHT22;45006;56.958;24.166;2023-06-22T03:20:09;26.30;74.50
54485;DHT22;45006;56.958;24.166;2023-06-22T03:22:39;26.30;74.60
54485;DHT22;45006;56.958;24.166;2023-06-22T03:25:09;26.30;74.60
54485;DHT22;45006;56.958;24.166;2023-06-22T03:27:42;26.30;74.70
54485;DHT22;45006;56.958;24.166;2023-06-22T03:30:11;26.30;74.70
54485;DHT22;45006;56.958;24.166;2023-06-22T03:32:38;26.30;74.70
54485;DHT22;45006;56.958;24.166;2023-06-22T03:35:06;26.30;74.70
54485;DHT22;45006;56.958;24.166;2023-06-22T03:37:33;26.30;74.70
54485;DHT22;45006;56.958;24.166;2023-06-22T03:40:00;26.30;74.80
54485;DHT22;45006;56.958;24.166;2023-06-22T03:42:27;26.30;74.80
54485;DHT22;45006;56.958;24.166;2023-06-22T03:44:54;26.30;74.80
54485;DHT22;45006;56.958;24.166;2023-06-22T03:47:22;26.30;75.00
54485;DHT22;45006;56.958;24.166;2023-06-22T03:49:49;26.30;75.20
54485;DHT22;45006;56.958;24.166;2023-06-22T03:52:16;26.30;75.20
54485;DHT22;45006;56.958;24.166;2023-06-22T03:54:43;26.30;75.20
54485;DHT22;45006;56.958;24.166;2023-06-22T03:57:10;26.30;75.40
54485;DHT22;45006;56.958;24.166;2023-06-22T03:59:37;26.30;75.40
54485;DHT22;45006;56.958;24.166;2023-06-22T04:02:04;26.30;75.20
54485;DHT22;45006;56.958;24.166;2023-06-22T04:04:31;26.30;75.20
54485;DHT22;45006;56.958;24.166;2023-06-22T04:07:00;26.30;75.30
54485;DHT22;45006;56.958;24.166;2023-06-22T04:09:27;26.30;75.30
54485;DHT22;45006;56.958;24.166;2023-06-22T04:11:54;26.30;75.60
54485;DHT22;45006;56.958;24.166;2023-06-22T04:14:21;26.30;75.50
54485;DHT22;45006;56.958;24.166;2023-06-22T04:16:49;26.30;75.50
54485;DHT22;45006;56.958;24.166;2023-06-22T04:19:16;26.40;75.50
54485;DHT22;45006;56.958;24.166;2023-06-22T04:21:44;26.40;75.50
54485;DHT22;45006;56.958;24.166;2023-06-22T04:24:13;26.40;75.40
54485;DHT22;45006;56.958;24.166;2023-06-22T04:26:40;26.40;75.40
54485;DHT22;45006;56.958;24.166;2023-06-22T04:29:08;26.40;75.50
54485;DHT22;45006;56.958;24.166;2023-06-22T04:31:37;26.40;75.60
54485;DHT22;45006;56.958;24.166;2023-06-22T04:34:06;26.40;75.80
54485;DHT22;45006;56.958;24.166;2023-06-22T04:36:35;26.40;75.90
54485;DHT22;45006;56.958;24.166;2023-06-22T04:39:08;26.40;76.10
54485;DHT22;45006;56.958;24.166;2023-06-22T04:41:37;26.40;76.20
54485;DHT22;45006;56.958;24.166;2023-06-22T04:44:16;26.40;76.40
54485;DHT22;45006;56.958;24.166;2023-06-22T04:49:21;26.40;76.60
54485;DHT22;45006;56.958;24.166;2023-06-22T04:51:48;26.40;76.80
54485;DHT22;45006;56.958;24.166;2023-06-22T04:54:18;26.40;77.00
54485;DHT22;45006;56.958;24.166;2023-06-22T04:56:45;26.40;77.10
54485;DHT22;45006;56.958;24.166;2023-06-22T04:59:13;26.40;77.30
54485;DHT22;45006;56.958;24.166;2023-06-22T05:01:41;26.40;77.40
54485;DHT22;45006;56.958;24.166;2023-06-22T05:04:08;26.40;77.40
54485;DHT22;45006;56.958;24.166;2023-06-22T05:06:36;26.40;77.50
54485;DHT22;45006;56.958;24.166;2023-06-22T05:09:06;26.40;77.50
54485;DHT22;45006;56.958;24.166;2023-06-22T05:11:33;26.40;77.60
54485;DHT22;45006;56.958;24.166;2023-06-22T05:14:00;26.40;77.70
54485;DHT22;45006;56.958;24.166;2023-06-22T05:16:28;26.40;77.80
54485;DHT22;45006;56.958;24.166;2023-06-22T05:18:55;26.40;77.90
54485;DHT22;45006;56.958;24.166;2023-06-22T05:21:24;26.40;78.00
54485;DHT22;45006;56.958;24.166;2023-06-22T05:23:52;26.40;78.10
54485;DHT22;45006;56.958;24.166;2023-06-22T05:26:20;26.40;78.20
54485;DHT22;45006;56.958;24.166;2023-06-22T05:28:48;26.40;78.20
54485;DHT22;45006;56.958;24.166;2023-06-22T05:31:16;26.40;78.30
54485;DHT22;45006;56.958;24.166;2023-06-22T05:33:44;26.40;78.40
54485;DHT22;45006;56.958;24.166;2023-06-22T05:36:11;26.40;78.50
54485;DHT22;45006;56.958;24.166;2023-06-22T05:38:39;26.40;78.70
54485;DHT22;45006;56.958;24.166;2023-06-22T05:41:07;26.40;78.80
54485;DHT22;45006;56.958;24.166;2023-06-22T05:43:34;26.40;79.00
54485;DHT22;45006;56.958;24.166;2023-06-22T05:46:02;26.40;78.90
54485;DHT22;45006;56.958;24.166;2023-06-22T05:48:30;26.40;79.00
54485;DHT22;45006;56.958;24.166;2023-06-22T05:50:59;26.30;79.00
54485;DHT22;45006;56.958;24.166;2023-06-22T05:53:26;26.40;79.10
54485;DHT22;45006;56.958;24.166;2023-06-22T05:55:53;26.30;79.30
54485;DHT22;45006;56.958;24.166;2023-06-22T05:58:20;26.30;79.20
54485;DHT22;45006;56.958;24.166;2023-06-22T06:00:48;26.30;79.40
54485;DHT22;45006;56.958;24.166;2023-06-22T06:03:15;26.30;79.40
54485;DHT22;45006;56.958;24.166;2023-06-22T06:05:44;26.30;79.40
54485;DHT22;45006;56.958;24.166;2023-06-22T06:08:12;26.30;79.50
54485;DHT22;45006;56.958;24.166;2023-06-22T06:10:39;26.30;79.60
54485;DHT22;45006;56.958;24.166;2023-06-22T06:13:06;26.40;79.70
54485;DHT22;45006;56.958;24.166;2023-06-22T06:15:34;26.30;79.60
54485;DHT22;45006;56.958;24.166;2023-06-22T06:18:01;26.30;79.70
54485;DHT22;45006;56.958;24.166;2023-06-22T06:20:32;26.30;79.80
54485;DHT22;45006;56.958;24.166;2023-06-22T06:23:00;26.30;79.80
54485;DHT22;45006;56.958;24.166;2023-06-22T06:25:28;26.30;79.90
54485;DHT22;45006;56.958;24.166;2023-06-22T06:27:55;26.30;79.90
54485;DHT22;45006;56.958;24.166;2023-06-22T06:30:22;26.30;80.00
54485;DHT22;45006;56.958;24.166;2023-06-22T06:32:50;26.30;80.00
54485;DHT22;45006;56.958;24.166;2023-06-22T06:35:17;26.30;80.10
54485;DHT22;45006;56.958;24.166;2023-06-22T06:37:46;26.30;80.30
54485;DHT22;45006;56.958;24.166;2023-06-22T06:40:14;26.30;80.40
54485;DHT22;45006;56.958;24.166;2023-06-22T06:42:43;26.30;80.30
54485;DHT22;45006;56.958;24.166;2023-06-22T06:45:15;26.30;80.30
54485;DHT22;45006;56.958;24.166;2023-06-22T06:47:42;26.30;80.40
54485;DHT22;45006;56.958;24.166;2023-06-22T06:50:11;26.30;80.40
54485;DHT22;45006;56.958;24.166;2023-06-22T06:52:39;26.30;80.50
54485;DHT22;45006;56.958;24.166;2023-06-22T06:55:06;26.30;80.50
54485;DHT22;45006;56.958;24.166;2023-06-22T06:57:41;26.30;80.70
54485;DHT22;45006;56.958;24.166;2023-06-22T07:00:10;26.30;80.70
54485;DHT22;45006;56.958;24.166;2023-06-22T07:02:48;26.30;80.70
54485;DHT22;45006;56.958;24.166;2023-06-22T07:05:15;26.30;80.70
54485;DHT22;45006;56.958;24.166;2023-06-22T07:08:27;26.30;80.80
54485;DHT22;45006;56.958;24.166;2023-06-22T07:11:07;26.30;80.90
54485;DHT22;45006;56.958;24.166;2023-06-22T07:13:33;26.30;81.00
54485;DHT22;45006;56.958;24.166;2023-06-22T07:16:01;26.30;81.00
54485;DHT22;45006;56.958;24.166;2023-06-22T07:18:28;26.30;81.80
54485;DHT22;45006;56.958;24.166;2023-06-22T07:20:56;26.40;81.30
54485;DHT22;45006;56.958;24.166;2023-06-22T07:23:23;26.40;81.20
54485;DHT22;45006;56.958;24.166;2023-06-22T07:25:50;26.40;81.30
54485;DHT22;45006;56.958;24.166;2023-06-22T07:28:19;26.40;81.50
54485;DHT22;45006;56.958;24.166;2023-06-22T07:30:46;26.30;78.20
54485;DHT22;45006;56.958;24.166;2023-06-22T07:33:15;26.30;78.50
54485;DHT22;45006;56.958;24.166;2023-06-22T07:35:44;26.30;77.70
54485;DHT22;45006;56.958;24.166;2023-06-22T07:38:14;26.30;77.60
54485;DHT22;45006;56.958;24.166;2023-06-22T07:40:43;26.30;76.80
54485;DHT22;45006;56.958;24.166;2023-06-22T07:43:13;26.30;77.10
54485;DHT22;45006;56.958;24.166;2023-06-22T07:45:40;26.30;78.00
54485;DHT22;45006;56.958;24.166;2023-06-22T07:48:08;26.40;78.80
54485;DHT22;45006;56.958;24.166;2023-06-22T07:50:35;26.40;78.80
54485;DHT22;45006;56.958;24.166;2023-06-22T07:53:02;26.40;77.70
54485;DHT22;45006;56.958;24.166;2023-06-22T07:55:29;26.40;77.40
54485;DHT22;45006;56.958;24.166;2023-06-22T07:57:57;26.40;77.40
54485;DHT22;45006;56.958;24.166;2023-06-22T08:00:25;26.40;77.60
54485;DHT22;45006;56.958;24.166;2023-06-22T08:02:52;26.40;77.50
54485;DHT22;45006;56.958;24.166;2023-06-22T08:05:19;26.40;77.50
54485;DHT22;45006;56.958;24.166;2023-06-22T08:07:49;26.40;77.40
54485;DHT22;45006;56.958;24.166;2023-06-22T08:10:17;26.40;77.30
54485;DHT22;45006;56.958;24.166;2023-06-22T08:12:45;26.40;77.20
54485;DHT22;45006;56.958;24.166;2023-06-22T08:15:13;26.40;77.10
54485;DHT22;45006;56.958;24.166;2023-06-22T08:17:40;26.40;77.00
54485;DHT22;45006;56.958;24.166;2023-06-22T08:20:09;26.40;76.80
54485;DHT22;45006;56.958;24.166;2023-06-22T08:22:41;26.50;76.80
54485;DHT22;45006;56.958;24.166;2023-06-22T08:25:10;26.50;76.70
54485;DHT22;45006;56.958;24.166;2023-06-22T08:27:38;26.50;76.70
54485;DHT22;45006;56.958;24.166;2023-06-22T08:30:07;26.50;76.80
54485;DHT22;45006;56.958;24.166;2023-06-22T08:32:34;26.40;76.80
54485;DHT22;45006;56.958;24.166;2023-06-22T08:35:01;26.40;76.70
54485;DHT22;45006;56.958;24.166;2023-06-22T08:37:28;26.40;76.70
54485;DHT22;45006;56.958;24.166;2023-06-22T08:40:05;26.40;76.60
54485;DHT22;45006;56.958;24.166;2023-06-22T08:42:33;26.40;76.80
54485;DHT22;45006;56.958;24.166;2023-06-22T08:45:00;26.40;76.90
54485;DHT22;45006;56.958;24.166;2023-06-22T08:47:28;26.40;76.80
54485;DHT22;45006;56.958;24.166;2023-06-22T08:49:57;26.40;76.90
54485;DHT22;45006;56.958;24.166;2023-06-22T08:52:24;26.40;76.80
54485;DHT22;45006;56.958;24.166;2023-06-22T08:54:51;26.50;76.90
54485;DHT22;45006;56.958;24.166;2023-06-22T08:57:20;26.40;76.80
54485;DHT22;45006;56.958;24.166;2023-06-22T08:59:50;26.40;76.70
54485;DHT22;45006;56.958;24.166;2023-06-22T09:02:20;26.40;76.70
54485;DHT22;45006;56.958;24.166;2023-06-22T09:04:47;26.40;76.70
54485;DHT22;45006;56.958;24.166;2023-06-22T09:07:16;26.40;76.80
54485;DHT22;45006;56.958;24.166;2023-06-22T09:09:49;26.40;76.80
54485;DHT22;45006;56.958;24.166;2023-06-22T09:12:19;26.40;76.80
54485;DHT22;45006;56.958;24.166;2023-06-22T09:14:53;26.40;76.90
54485;DHT22;45006;56.958;24.166;2023-06-22T09:17:22;26.40;76.90
54485;DHT22;45006;56.958;24.166;2023-06-22T09:19:52;26.40;76.90
54485;DHT22;45006;56.958;24.166;2023-06-22T09:22:19;26.40;77.00
54485;DHT22;45006;56.958;24.166;2023-06-22T09:24:46;26.40;76.70
54485;DHT22;45006;56.958;24.166;2023-06-22T09:27:16;26.40;76.60
54485;DHT22;45006;56.958;24.166;2023-06-22T09:29:44;26.40;76.60
54485;DHT22;45006;56.958;24.166;2023-06-22T09:32:13;26.40;76.40
54485;DHT22;45006;56.958;24.166;2023-06-22T09:34:41;26.40;76.40
54485;DHT22;45006;56.958;24.166;2023-06-22T09:37:08;26.40;76.20
54485;DHT22;45006;56.958;24.166;2023-06-22T09:39:36;26.40;76.20
54485;DHT22;45006;56.958;24.166;2023-06-22T09:42:04;26.30;76.30
54485;DHT22;45006;56.958;24.166;2023-06-22T09:44:33;26.30;75.90
54485;DHT22;45006;56.958;24.166;2023-06-22T09:47:01;26.40;76.20
54485;DHT22;45006;56.958;24.166;2023-06-22T09:49:28;26.30;76.10
54485;DHT22;45006;56.958;24.166;2023-06-22T09:52:15;26.30;76.00
54485;DHT22;45006;56.958;24.166;2023-06-22T09:54:42;26.30;76.00
54485;DHT22;45006;56.958;24.166;2023-06-22T09:57:09;26.30;75.90
54485;DHT22;45006;56.958;24.166;2023-06-22T09:59:36;26.30;75.90
54485;DHT22;45006;56.958;24.166;2023-06-22T10:02:06;26.30;75.80
54485;DHT22;45006;56.958;24.166;2023-06-22T10:04:36;26.30;76.00
54485;DHT22;45006;56.958;24.166;2023-06-22T10:07:04;26.30;75.80
54485;DHT22;45006;56.958;24.166;2023-06-22T10:09:32;26.30;75.60
54485;DHT22;45006;56.958;24.166;2023-06-22T10:12:00;26.30;75.60
54485;DHT22;45006;56.958;24.166;2023-06-22T10:14:27;26.30;75.40
54485;DHT22;45006;56.958;24.166;2023-06-22T10:16:56;26.30;75.50
54485;DHT22;45006;56.958;24.166;2023-06-22T10:19:25;26.30;75.10
54485;DHT22;45006;56.958;24.166;2023-06-22T10:21:53;26.30;75.20
54485;DHT22;45006;56.958;24.166;2023-06-22T10:24:22;26.30;75.30
54485;DHT22;45006;56.958;24.166;2023-06-22T10:26:49;26.30;75.20
54485;DHT22;45006;56.958;24.166;2023-06-22T10:29:16;26.30;75.20
54485;DHT22;45006;56.958;24.166;2023-06-22T10:31:43;26.30;75.20
54485;DHT22;45006;56.958;24.166;2023-06-22T10:34:10;26.30;75.20
54485;DHT22;45006;56.958;24.166;2023-06-22T10:36:39;26.30;75.40
54485;DHT22;45006;56.958;24.166;2023-06-22T10:39:07;26.30;75.30
54485;DHT22;45006;56.958;24.166;2023-06-22T10:41:35;26.30;75.40
54485;DHT22;45006;56.958;24.166;2023-06-22T10:44:02;26.30;75.60
54485;DHT22;45006;56.958;24.166;2023-06-22T10:46:30;26.30;75.80
54485;DHT22;45006;56.958;24.166;2023-06-22T10:48:57;26.30;75.60
54485;DHT22;45006;56.958;24.166;2023-06-22T10:51:28;26.30;75.60
54485;DHT22;45006;56.958;24.166;2023-06-22T10:53:58;26.30;75.60
54485;DHT22;45006;56.958;24.166;2023-06-22T10:56:26;26.30;75.60
54485;DHT22;45006;56.958;24.166;2023-06-22T10:58:54;26.30;75.60
54485;DHT22;45006;56.958;24.166;2023-06-22T11:01:23;26.30;75.70
54485;DHT22;45006;56.958;24.166;2023-06-22T11:03:53;26.40;76.00
54485;DHT22;45006;56.958;24.166;2023-06-22T11:06:20;26.40;76.40
54485;DHT22;45006;56.958;24.166;2023-06-22T11:08:47;26.40;77.20
54485;DHT22;45006;56.958;24.166;2023-06-22T11:11:32;26.40;85.60
54485;DHT22;45006;56.958;24.166;2023-06-22T11:13:59;26.50;95.40
54485;DHT22;45006;56.958;24.166;2023-06-22T11:16:27;26.50;95.60
54485;DHT22;45006;56.958;24.166;2023-06-22T11:18:54;26.50;95.90
54485;DHT22;45006;56.958;24.166;2023-06-22T11:21:21;26.50;96.00
54485;DHT22;45006;56.958;24.166;2023-06-22T11:23:49;26.50;96.40
54485;DHT22;45006;56.958;24.166;2023-06-22T11:26:18;26.50;96.50
54485;DHT22;45006;56.958;24.166;2023-06-22T11:28:45;26.50;96.60
54485;DHT22;45006;56.958;24.166;2023-06-22T11:31:13;26.50;96.60
54485;DHT22;45006;56.958;24.166;2023-06-22T11:33:44;26.50;96.60
54485;DHT22;45006;56.958;24.166;2023-06-22T11:36:15;26.50;96.60
54485;DHT22;45006;56.958;24.166;2023-06-22T11:38:43;26.50;96.60
54485;DHT22;45006;56.958;24.166;2023-06-22T11:41:12;26.50;96.50
54485;DHT22;45006;56.958;24.166;2023-06-22T11:43:39;26.50;96.50
54485;DHT22;45006;56.958;24.166;2023-06-22T11:46:06;26.40;96.40
54485;DHT22;45006;56.958;24.166;2023-06-22T11:48:34;26.50;96.40
54485;DHT22;45006;56.958;24.166;2023-06-22T11:51:00;26.50;96.40
54485;DHT22;45006;56.958;24.166;2023-06-22T11:53:29;26.50;96.40
54485;DHT22;45006;56.958;24.166;2023-06-22T11:55:56;26.50;96.30
54485;DHT22;45006;56.958;24.166;2023-06-22T11:58:23;26.50;96.30
54485;DHT22;45006;56.958;24.166;2023-06-22T12:00:50;26.50;96.30
54485;DHT22;45006;56.958;24.166;2023-06-22T12:03:24;26.50;96.30
54485;DHT22;45006;56.958;24.166;2023-06-22T12:05:51;26.50;95.90
54485;DHT22;45006;56.958;24.166;2023-06-22T12:08:19;26.50;95.80
54485;DHT22;45006;56.958;24.166;2023-06-22T12:10:46;26.50;95.70
54485;DHT22;45006;56.958;24.166;2023-06-22T12:13:13;26.50;95.60
54485;DHT22;45006;56.958;24.166;2023-06-22T12:15:40;26.50;95.50
54485;DHT22;45006;56.958;24.166;2023-06-22T12:18:08;26.50;95.30
54485;DHT22;45006;56.958;24.166;2023-06-22T12:20:38;26.50;95.20
54485;DHT22;45006;56.958;24.166;2023-06-22T12:23:05;26.50;95.10
54485;DHT22;45006;56.958;24.166;2023-06-22T12:25:32;26.50;95.00
54485;DHT22;45006;56.958;24.166;2023-06-22T12:27:59;26.50;95.00
54485;DHT22;45006;56.958;24.166;2023-06-22T12:30:27;26.50;94.80
54485;DHT22;45006;56.958;24.166;2023-06-22T12:32:57;26.50;94.90
54485;DHT22;45006;56.958;24.166;2023-06-22T12:35:28;26.50;94.40
54485;DHT22;45006;56.958;24.166;2023-06-22T12:37:55;26.50;94.10
54485;DHT22;45006;56.958;24.166;2023-06-22T12:40:25;26.50;94.10
54485;DHT22;45006;56.958;24.166;2023-06-22T12:42:53;26.50;94.00
54485;DHT22;45006;56.958;24.166;2023-06-22T12:45:21;26.50;93.70
54485;DHT22;45006;56.958;24.166;2023-06-22T12:47:50;26.50;93.00
54485;DHT22;45006;56.958;24.166;2023-06-22T12:50:17;26.50;92.40
54485;DHT22;45006;56.958;24.166;2023-06-22T12:52:44;26.50;92.30
54485;DHT22;45006;56.958;24.166;2023-06-22T12:55:15;26.50;92.30
54485;DHT22;45006;56.958;24.166;2023-06-22T12:57:42;26.50;92.30
54485;DHT22;45006;56.958;24.166;2023-06-22T13:00:10;26.50;92.40
54485;DHT22;45006;56.958;24.166;2023-06-22T13:02:37;26.50;92.30
54485;DHT22;45006;56.958;24.166;2023-06-22T13:05:05;26.50;92.30
54485;DHT22;45006;56.958;24.166;2023-06-22T13:07:33;26.50;92.30
54485;DHT22;45006;56.958;24.166;2023-06-22T13:10:02;26.50;92.30
54485;DHT22;45006;56.958;24.166;2023-06-22T13:12:29;26.50;92.40
54485;DHT22;45006;56.958;24.166;2023-06-22T13:14:55;26.50;92.50
54485;DHT22;45006;56.958;24.166;2023-06-22T13:17:22;26.50;92.40
54485;DHT22;45006;56.958;24.166;2023-06-22T13:19:49;26.50;92.30
54485;DHT22;45006;56.958;24.166;2023-06-22T13:22:32;26.50;92.40
54485;DHT22;45006;56.958;24.166;2023-06-22T13:25:01;26.50;92.40
54485;DHT22;45006;56.958;24.166;2023-06-22T13:27:30;26.50;92.40
54485;DHT22;45006;56.958;24.166;2023-06-22T13:29:57;26.50;92.30
54485;DHT22;45006;56.958;24.166;2023-06-22T13:32:24;26.50;92.20
54485;DHT22;45006;56.958;24.166;2023-06-22T13:34:52;26.50;92.10
54485;DHT22;45006;56.958;24.166;2023-06-22T13:37:19;26.50;92.00
54485;DHT22;45006;56.958;24.166;2023-06-22T13:39:46;26.50;92.00
54485;DHT22;45006;56.958;24.166;2023-06-22T13:42:13;26.50;92.10
54485;DHT22;45006;56.958;24.166;2023-06-22T13:44:40;26.50;92.10
54485;DHT22;45006;56.958;24.166;2023-06-22T13:47:07;26.50;92.10
54485;DHT22;45006;56.958;24.166;2023-06-22T13:49:34;26.50;92.10
54485;DHT22;45006;56.958;24.166;2023-06-22T13:52:04;26.50;92.10
54485;DHT22;45006;56.958;24.166;2023-06-22T13:54:33;26.50;92.10
54485;DHT22;45006;56.958;24.166;2023-06-22T13:57:02;26.50;92.10
54485;DHT22;45006;56.958;24.166;2023-06-22T13:59:30;26.50;92.00
54485;DHT22;45006;56.958;24.166;2023-06-22T14:01:57;26.50;92.00
54485;DHT22;45006;56.958;24.166;2023-06-22T14:04:27;26.50;92.00
54485;DHT22;45006;56.958;24.166;2023-06-22T14:06:55;26.50;92.00
54485;DHT22;45006;56.958;24.166;2023-06-22T14:09:23;26.50;92.00
54485;DHT22;45006;56.958;24.166;2023-06-22T14:11:53;26.50;92.20
54485;DHT22;45006;56.958;24.166;2023-06-22T14:14:22;26.50;92.00
54485;DHT22;45006;56.958;24.166;2023-06-22T14:16:49;26.50;92.10
54485;DHT22;45006;56.958;24.166;2023-06-22T14:19:18;26.50;92.10
54485;DHT22;45006;56.958;24.166;2023-06-22T14:21:45;26.50;92.00
54485;DHT22;45006;56.958;24.166;2023-06-22T14:24:12;26.50;92.00
54485;DHT22;45006;56.958;24.166;2023-06-22T14:26:39;26.50;92.00
54485;DHT22;45006;56.958;24.166;2023-06-22T14:29:06;26.50;91.90
54485;DHT22;45006;56.958;24.166;2023-06-22T14:31:33;26.50;92.00
54485;DHT22;45006;56.958;24.166;2023-06-22T14:34:01;26.50;91.90
54485;DHT22;45006;56.958;24.166;2023-06-22T14:36:30;26.50;91.90
54485;DHT22;45006;56.958;24.166;2023-06-22T14:38:57;26.50;91.90
54485;DHT22;45006;56.958;24.166;2023-06-22T14:41:24;26.50;91.90
54485;DHT22;45006;56.958;24.166;2023-06-22T14:43:51;26.50;91.90
54485;DHT22;45006;56.958;24.166;2023-06-22T14:46:18;26.50;92.10
54485;DHT22;45006;56.958;24.166;2023-06-22T14:48:47;26.50;91.80
54485;DHT22;45006;56.958;24.166;2023-06-22T14:51:14;26.50;91.90
54485;DHT22;45006;56.958;24.166;2023-06-22T14:53:44;26.50;91.80
54485;DHT22;45006;56.958;24.166;2023-06-22T14:56:12;26.50;91.70
54485;DHT22;45006;56.958;24.166;2023-06-22T14:58:43;26.50;91.70
54485;DHT22;45006;56.958;24.166;2023-06-22T15:01:13;26.50;91.80
54485;DHT22;45006;56.958;24.166;2023-06-22T15:03:41;26.50;91.80
54485;DHT22;45006;56.958;24.166;2023-06-22T15:06:09;26.50;91.80
54485;DHT22;45006;56.958;24.166;2023-06-22T15:08:42;26.50;91.80
54485;DHT22;45006;56.958;24.166;2023-06-22T15:11:09;26.50;91.80
54485;DHT22;45006;56.958;24.166;2023-06-22T15:13:39;26.50;91.80
54485;DHT22;45006;56.958;24.166;2023-06-22T15:16:06;26.50;91.80
54485;DHT22;45006;56.958;24.166;2023-06-22T15:18:35;26.50;91.80
54485;DHT22;45006;56.958;24.166;2023-06-22T15:21:04;26.50;91.80
54485;DHT22;45006;56.958;24.166;2023-06-22T15:23:31;26.50;91.80
54485;DHT22;45006;56.958;24.166;2023-06-22T15:26:01;26.50;92.10